sensor_id;sensor_type;location;lat;lon;timestamp;pressure;altitude;pressure_sealevel;temperature;humidity
25232;BME280;13176;51.140;6.290;2023-07-28T00:01:54;99829.38;;;20.52;100.00
25232;BME280;13176;51.140;6.290;2023-07-28T00:04:20;99838.41;;;20.50;100.00
25232;BME280;13176;51.140;6.290;2023-07-28T00:06:47;99856.56;;;20.68;100.00
25232;BME280;13176;51.140;6.290;2023-07-28T00:09:13;99822.38;;;20.39;100.00
25232;BME280;13176;51.140;6.290;2023-07-28T00:11:40;99827.69;;;20.51;100.00
25232;BME280;13176;51.140;6.290;2023-07-28T00:14:06;99833.00;;;20.51;100.00
25232;BME280;13176;51.140;6.290;2023-07-28T00:16:33;99820.47;;;20.53;100.00
25232;BME280;13176;51.140;6.290;2023-07-28T00:19:00;99855.44;;;20.84;100.00
25232;BME280;13176;51.140;6.290;2023-07-28T00:21:27;99837.34;;;20.77;100.00
25232;BME280;13176;51.140;6.290;2023-07-28T00:23:53;99830.88;;;20.56;100.00
25232;BME280;13176;51.140;6.290;2023-07-28T00:26:20;99840.44;;;20.71;100.00
25232;BME280;13176;51.140;6.290;2023-07-28T00:28:47;99822.63;;;20.73;100.00
25232;BME280;13176;51.140;6.290;2023-07-28T00:31:13;99855.53;;;20.83;100.00
25232;BME280;13176;51.140;6.290;2023-07-28T00:33:40;99882.91;;;20.96;100.00
25232;BME280;13176;51.140;6.290;2023-07-28T00:36:06;99849.66;;;20.78;100.00
25232;BME280;13176;51.140;6.290;2023-07-28T00:38:33;99851.72;;;20.87;100.00
25232;BME280;13176;51.140;6.290;2023-07-28T00:40:59;99862.53;;;20.84;100.00
25232;BME280;13176;51.140;6.290;2023-07-28T00:43:26;99858.16;;;20.70;100.00
25232;BME280;13176;51.140;6.290;2023-07-28T00:45:53;99852.75;;;20.72;100.00
25232;BME280;13176;51.140;6.290;2023-07-28T00:48:19;99848.91;;;20.76;100.00
25232;BME280;13176;51.140;6.290;2023-07-28T00:50:48;99862.97;;;20.90;100.00
25232;BME280;13176;51.140;6.290;2023-07-28T00:53:15;99857.97;;;20.86;100.00
25232;BME280;13176;51.140;6.290;2023-07-28T00:55:42;99853.09;;;20.80;100.00
25232;BME280;13176;51.140;6.290;2023-07-28T00:58:09;99866.47;;;20.91;100.00
25232;BME280;13176;51.140;6.290;2023-07-28T01:00:35;99877.41;;;20.86;100.00
25232;BME280;13176;51.140;6.290;2023-07-28T01:03:02;99875.16;;;20.93;100.00
25232;BME280;13176;51.140;6.290;2023-07-28T01:05:37;99868.06;;;20.93;100.00
25232;BME280;13176;51.140;6.290;2023-07-28T01:08:19;99882.91;;;20.96;100.00
25232;BME280;13176;51.140;6.290;2023-07-28T01:10:47;99848.41;;;20.71;100.00
25232;BME280;13176;51.140;6.290;2023-07-28T01:13:14;99860.50;;;20.75;100.00
25232;BME280;13176;51.140;6.290;2023-07-28T01:15:40;99785.38;;;20.37;100.00
25232;BME280;13176;51.140;6.290;2023-07-28T01:18:07;99821.75;;;20.60;100.00
25232;BME280;13176;51.140;6.290;2023-07-28T01:20:34;99830.47;;;20.62;100.00
25232;BME280;13176;51.140;6.290;2023-07-28T01:23:08;99859.50;;;20.76;100.00
25232;BME280;13176;51.140;6.290;2023-07-28T01:25:42;99870.59;;;20.82;100.00
25232;BME280;13176;51.140;6.290;2023-07-28T01:28:10;99845.75;;;20.71;100.00
25232;BME280;13176;51.140;6.290;2023-07-28T01:30:38;99801.28;;;20.37;100.00
25232;BME280;13176;51.140;6.290;2023-07-28T01:33:06;99864.44;;;20.82;100.00
25232;BME280;13176;51.140;6.290;2023-07-28T01:35:36;99876.53;;;20.86;100.00
25232;BME280;13176;51.140;6.290;2023-07-28T01:38:03;99858.47;;;20.66;100.00
25232;BME280;13176;51.140;6.290;2023-07-28T01:40:30;99856.59;;;20.80;100.00
25232;BME280;13176;51.140;6.290;2023-07-28T01:43:00;99827.06;;;20.60;100.00
25232;BME280;13176;51.140;6.290;2023-07-28T01:45:26;99841.28;;;20.59;100.00
25232;BME280;13176;51.140;6.290;2023-07-28T01:47:53;99800.97;;;20.42;100.00
25232;BME280;13176;51.140;6.290;2023-07-28T01:50:19;99848.16;;;20.62;100.00
25232;BME280;13176;51.140;6.290;2023-07-28T01:52:46;99857.22;;;20.84;100.00
25232;BME280;13176;51.140;6.290;2023-07-28T01:55:12;99817.81;;;20.53;100.00
25232;BME280;13176;51.140;6.290;2023-07-28T01:57:39;99859.75;;;20.73;100.00
25232;BME280;13176;51.140;6.290;2023-07-28T02:00:06;99829.19;;;20.55;100.00
25232;BME280;13176;51.140;6.290;2023-07-28T02:02:33;99826.41;;;20.44;100.00
25232;BME280;13176;51.140;6.290;2023-07-28T02:05:00;99831.94;;;20.66;100.00
25232;BME280;13176;51.140;6.290;2023-07-28T02:07:26;99832.16;;;20.63;100.00
25232;BME280;13176;51.140;6.290;2023-07-28T02:09:53;99847.44;;;20.72;100.00
25232;BME280;13176;51.140;6.290;2023-07-28T02:12:19;99793.84;;;20.42;100.00
25232;BME280;13176;51.140;6.290;2023-07-28T02:14:45;99846.16;;;20.77;100.00
25232;BME280;13176;51.140;6.290;2023-07-28T02:17:12;99841.06;;;20.62;100.00
25232;BME280;13176;51.140;6.290;2023-07-28T02:19:38;99819.63;;;20.53;100.00
25232;BME280;13176;51.140;6.290;2023-07-28T02:22:05;99851.25;;;20.68;100.00
25232;BME280;13176;51.140;6.290;2023-07-28T02:24:33;99841.06;;;20.62;100.00
25232;BME280;13176;51.140;6.290;2023-07-28T02:26:59;99795.03;;;20.38;100.00
25232;BME280;13176;51.140;6.290;2023-07-28T02:29:26;99861.44;;;20.74;100.00
25232;BME280;13176;51.140;6.290;2023-07-28T02:31:52;99860.38;;;20.76;100.00
25232;BME280;13176;51.140;6.290;2023-07-28T02:34:18;99835.34;;;20.68;100.00
25232;BME280;13176;51.140;6.290;2023-07-28T02:36:45;99844.25;;;20.67;100.00
25232;BME280;13176;51.140;6.290;2023-07-28T02:39:11;99845.75;;;20.71;100.00
25232;BME280;13176;51.140;6.290;2023-07-28T02:41:38;99847.53;;;20.70;100.00
25232;BME280;13176;51.140;6.290;2023-07-28T02:44:04;99824.75;;;20.68;100.00
25232;BME280;13176;51.140;6.290;2023-07-28T02:46:30;99836.84;;;20.72;100.00
25232;BME280;13176;51.140;6.290;2023-07-28T02:48:57;99859.44;;;20.77;100.00
25232;BME280;13176;51.140;6.290;2023-07-28T02:51:24;99866.78;;;20.86;100.00
25232;BME280;13176;51.140;6.290;2023-07-28T02:53:50;99826.19;;;20.60;100.00
25232;BME280;13176;51.140;6.290;2023-07-28T02:56:16;99864.44;;;20.82;100.00
25232;BME280;13176;51.140;6.290;2023-07-28T02:58:43;99864.44;;;20.82;100.00
25232;BME280;13176;51.140;6.290;2023-07-28T03:01:09;99846.16;;;20.65;100.00
25232;BME280;13176;51.140;6.290;2023-07-28T03:03:36;99813.13;;;20.44;100.00
25232;BME280;13176;51.140;6.290;2023-07-28T03:06:02;99875.88;;;20.70;100.00
25232;BME280;13176;51.140;6.290;2023-07-28T03:08:29;99875.03;;;20.82;100.00
25232;BME280;13176;51.140;6.290;2023-07-28T03:10:58;99886.69;;;20.79;100.00
25232;BME280;13176;51.140;6.290;2023-07-28T03:13:25;99881.84;;;20.86;100.00
25232;BME280;13176;51.140;6.290;2023-07-28T03:15:51;99878.44;;;20.84;100.00
25232;BME280;13176;51.140;6.290;2023-07-28T03:18:18;99871.44;;;20.83;100.00
25232;BME280;13176;51.140;6.290;2023-07-28T03:20:45;99888.63;;;20.90;100.00
25232;BME280;13176;51.140;6.290;2023-07-28T03:23:12;99884.63;;;20.97;100.00
25232;BME280;13176;51.140;6.290;2023-07-28T03:25:39;99886.66;;;20.93;100.00
25232;BME280;13176;51.140;6.290;2023-07-28T03:28:05;99864.81;;;20.76;100.00
25232;BME280;13176;51.140;6.290;2023-07-28T03:30:32;99886.72;;;20.92;100.00
25232;BME280;13176;51.140;6.290;2023-07-28T03:32:58;99880.34;;;20.82;100.00
25232;BME280;13176;51.140;6.290;2023-07-28T03:35:25;99880.53;;;20.79;100.00
25232;BME280;13176;51.140;6.290;2023-07-28T03:37:51;99880.97;;;20.73;100.00
25232;BME280;13176;51.140;6.290;2023-07-28T03:40:18;99843.06;;;20.59;100.00
25232;BME280;13176;51.140;6.290;2023-07-28T03:42:44;99888.09;;;20.85;100.00
25232;BME280;13176;51.140;6.290;2023-07-28T03:45:11;99890.50;;;20.75;100.00
25232;BME280;13176;51.140;6.290;2023-07-28T03:47:37;99887.63;;;20.66;100.00
25232;BME280;13176;51.140;6.290;2023-07-28T03:50:06;99904.75;;;20.99;100.00
25232;BME280;13176;51.140;6.290;2023-07-28T03:52:32;99892.91;;;20.92;100.00
25232;BME280;13176;51.140;6.290;2023-07-28T03:54:58;99904.34;;;20.93;100.00
25232;BME280;13176;51.140;6.290;2023-07-28T03:57:25;99899.25;;;20.90;100.00
25232;BME280;13176;51.140;6.290;2023-07-28T03:59:51;99890.63;;;20.74;100.00
25232;BME280;13176;51.140;6.290;2023-07-28T04:02:18;99851.00;;;20.59;100.00
25232;BME280;13176;51.140;6.290;2023-07-28T04:04:44;99896.28;;;20.82;100.00
25232;BME280;13176;51.140;6.290;2023-07-28T04:07:11;99883.84;;;20.70;100.00
25232;BME280;13176;51.140;6.290;2023-07-28T04:09:37;99883.69;;;20.59;100.00
25232;BME280;13176;51.140;6.290;2023-07-28T04:12:04;99907.00;;;20.93;100.00
25232;BME280;13176;51.140;6.290;2023-07-28T04:14:30;99822.59;;;20.48;100.00
25232;BME280;13176;51.140;6.290;2023-07-28T04:16:57;99843.72;;;20.62;100.00
25232;BME280;13176;51.140;6.290;2023-07-28T04:19:23;99910.06;;;20.99;100.00
25232;BME280;13176;51.140;6.290;2023-07-28T04:21:50;99899.47;;;20.99;100.00
25232;BME280;13176;51.140;6.290;2023-07-28T04:24:16;99901.50;;;21.08;100.00
25232;BME280;13176;51.140;6.290;2023-07-28T04:26:43;99905.97;;;21.08;100.00
25232;BME280;13176;51.140;6.290;2023-07-28T04:29:09;99855.91;;;20.77;100.00
25232;BME280;13176;51.140;6.290;2023-07-28T04:31:36;99894.59;;;20.93;100.00
25232;BME280;13176;51.140;6.290;2023-07-28T04:34:02;99907.13;;;21.04;100.00
25232;BME280;13176;51.140;6.290;2023-07-28T04:36:29;99896.19;;;20.96;100.00
25232;BME280;13176;51.140;6.290;2023-07-28T04:38:56;99910.41;;;21.07;100.00
25232;BME280;13176;51.140;6.290;2023-07-28T04:41:22;99856.03;;;20.75;100.00
25232;BME280;13176;51.140;6.290;2023-07-28T04:43:49;99888.84;;;20.99;100.00
25232;BME280;13176;51.140;6.290;2023-07-28T04:46:15;99876.75;;;20.83;100.00
25232;BME280;13176;51.140;6.290;2023-07-28T04:48:41;99904.06;;;21.10;100.00
25232;BME280;13176;51.140;6.290;2023-07-28T04:51:08;99867.00;;;20.83;100.00
25232;BME280;13176;51.140;6.290;2023-07-28T04:53:35;99837.03;;;20.69;100.00
25232;BME280;13176;51.140;6.290;2023-07-28T04:56:01;99887.28;;;20.97;100.00
25232;BME280;13176;51.140;6.290;2023-07-28T04:58:29;99894.38;;;20.96;100.00
25232;BME280;13176;51.140;6.290;2023-07-28T05:00:56;99912.31;;;21.18;100.00
25232;BME280;13176;51.140;6.290;2023-07-28T05:03:22;99887.91;;;20.88;100.00
25232;BME280;13176;51.140;6.290;2023-07-28T05:05:49;99891.28;;;20.90;100.00
25232;BME280;13176;51.140;6.290;2023-07-28T05:08:16;99933.44;;;21.19;100.00
25232;BME280;13176;51.140;6.290;2023-07-28T05:10:43;99877.94;;;20.91;100.00
25232;BME280;13176;51.140;6.290;2023-07-28T05:13:10;99927.94;;;21.10;100.00
25232;BME280;13176;51.140;6.290;2023-07-28T05:15:36;99876.28;;;20.76;100.00
25232;BME280;13176;51.140;6.290;2023-07-28T05:18:03;99912.84;;;20.98;100.00
25232;BME280;13176;51.140;6.290;2023-07-28T05:20:29;99948.41;;;21.08;100.00
25232;BME280;13176;51.140;6.290;2023-07-28T05:22:56;99926.13;;;20.98;100.00
25232;BME280;13176;51.140;6.290;2023-07-28T05:25:22;99947.66;;;21.06;100.00
25232;BME280;13176;51.140;6.290;2023-07-28T05:27:49;99917.28;;;20.97;100.00
25232;BME280;13176;51.140;6.290;2023-07-28T05:30:15;99945.56;;;21.11;100.00
25232;BME280;13176;51.140;6.290;2023-07-28T05:32:41;99921.00;;;20.95;100.00
25232;BME280;13176;51.140;6.290;2023-07-28T05:35:08;99940.25;;;21.11;100.00
25232;BME280;13176;51.140;6.290;2023-07-28T05:37:34;99933.88;;;21.01;100.00
25232;BME280;13176;51.140;6.290;2023-07-28T05:40:01;99893.63;;;20.82;100.00
25232;BME280;13176;51.140;6.290;2023-07-28T05:42:27;99962.31;;;21.24;100.00
25232;BME280;13176;51.140;6.290;2023-07-28T05:44:54;99966.66;;;21.25;100.00
25232;BME280;13176;51.140;6.290;2023-07-28T05:47:21;99951.38;;;21.16;100.00
25232;BME280;13176;51.140;6.290;2023-07-28T05:49:47;99961.47;;;21.23;100.00
25232;BME280;13176;51.140;6.290;2023-07-28T05:52:14;99931.75;;;20.93;100.00
25232;BME280;13176;51.140;6.290;2023-07-28T05:54:40;99973.16;;;21.21;100.00
25232;BME280;13176;51.140;6.290;2023-07-28T05:57:07;99950.88;;;21.11;100.00
25232;BME280;13176;51.140;6.290;2023-07-28T05:59:33;99979.53;;;21.31;100.00
25232;BME280;13176;51.140;6.290;2023-07-28T06:01:59;99934.28;;;20.95;100.00
25232;BME280;13176;51.140;6.290;2023-07-28T06:04:26;99976.53;;;21.23;100.00
25232;BME280;13176;51.140;6.290;2023-07-28T06:06:52;99983.22;;;21.16;100.00
25232;BME280;13176;51.140;6.290;2023-07-28T06:09:19;99975.06;;;21.19;100.00
25232;BME280;13176;51.140;6.290;2023-07-28T06:11:45;99953.72;;;21.08;100.00
25232;BME280;13176;51.140;6.290;2023-07-28T06:14:12;99977.09;;;21.28;100.00
25232;BME280;13176;51.140;6.290;2023-07-28T06:16:38;99927.28;;;20.94;100.00
25232;BME280;13176;51.140;6.290;2023-07-28T06:19:05;99949.16;;;21.10;100.00
25232;BME280;13176;51.140;6.290;2023-07-28T06:21:32;99988.88;;;21.36;100.00
25232;BME280;13176;51.140;6.290;2023-07-28T06:23:59;99989.72;;;21.37;100.00
25232;BME280;13176;51.140;6.290;2023-07-28T06:26:26;99975.38;;;21.27;100.00
25232;BME280;13176;51.140;6.290;2023-07-28T06:28:52;99987.78;;;21.14;100.00
25232;BME280;13176;51.140;6.290;2023-07-28T06:31:19;99989.06;;;21.21;100.00
25232;BME280;13176;51.140;6.290;2023-07-28T06:33:47;100000.97;;;21.28;100.00
25232;BME280;13176;51.140;6.290;2023-07-28T06:36:13;100008.66;;;21.45;100.00
25232;BME280;13176;51.140;6.290;2023-07-28T06:38:39;99928.28;;;20.79;100.00
25232;BME280;13176;51.140;6.290;2023-07-28T06:41:06;99998.44;;;21.26;100.00
25232;BME280;13176;51.140;6.290;2023-07-28T06:43:32;100003.09;;;21.23;100.00
25232;BME280;13176;51.140;6.290;2023-07-28T06:45:59;100015.00;;;21.30;100.00
25232;BME280;13176;51.140;6.290;2023-07-28T06:48:26;99957.63;;;20.90;100.00
25232;BME280;13176;51.140;6.290;2023-07-28T06:50:52;99958.03;;;20.84;100.00
25232;BME280;13176;51.140;6.290;2023-07-28T06:53:20;100009.00;;;21.14;100.00
25232;BME280;13176;51.140;6.290;2023-07-28T06:55:46;100016.69;;;21.31;100.00
25232;BME280;13176;51.140;6.290;2023-07-28T06:58:13;99993.09;;;21.14;100.00
25232;BME280;13176;51.140;6.290;2023-07-28T07:00:42;100016.69;;;21.31;100.00
25232;BME280;13176;51.140;6.290;2023-07-28T07:03:10;99972.09;;;21.11;100.00
25232;BME280;13176;51.140;6.290;2023-07-28T07:05:37;99920.00;;;20.71;100.00
25232;BME280;13176;51.140;6.290;2023-07-28T07:08:06;100015.00;;;21.30;100.00
25232;BME280;13176;51.140;6.290;2023-07-28T07:10:55;99943.44;;;20.77;100.00
25232;BME280;13176;51.140;6.290;2023-07-28T07:13:21;100002.00;;;21.13;100.00
25232;BME280;13176;51.140;6.290;2023-07-28T07:15:48;100008.72;;;21.31;100.00
25232;BME280;13176;51.140;6.290;2023-07-28T07:18:14;100031.59;;;21.46;100.00
25232;BME280;13176;51.140;6.290;2023-07-28T07:20:42;99899.09;;;20.79;100.00
25232;BME280;13176;51.140;6.290;2023-07-28T07:23:08;99949.25;;;20.96;100.00
25232;BME280;13176;51.140;6.290;2023-07-28T07:25:35;100015.00;;;21.30;100.00
25232;BME280;13176;51.140;6.290;2023-07-28T07:28:01;99992.38;;;21.24;100.00
25232;BME280;13176;51.140;6.290;2023-07-28T07:30:28;99999.28;;;21.27;100.00
25232;BME280;13176;51.140;6.290;2023-07-28T07:32:55;99991.44;;;21.38;100.00
25232;BME280;13176;51.140;6.290;2023-07-28T07:35:21;99980.69;;;21.27;100.00
25232;BME280;13176;51.140;6.290;2023-07-28T07:37:48;100048.19;;;21.62;100.00
25232;BME280;13176;51.140;6.290;2023-07-28T07:40:14;100041.59;;;21.67;100.00
25232;BME280;13176;51.140;6.290;2023-07-28T07:42:48;100016.81;;;21.42;100.00
25232;BME280;13176;51.140;6.290;2023-07-28T07:45:15;100029.78;;;21.59;100.00
25232;BME280;13176;51.140;6.290;2023-07-28T07:47:42;100038.41;;;21.75;100.00
25232;BME280;13176;51.140;6.290;2023-07-28T07:50:10;100051.38;;;21.79;100.00
25232;BME280;13176;51.140;6.290;2023-07-28T07:52:37;100070.50;;;21.72;100.00
25232;BME280;13176;51.140;6.290;2023-07-28T07:55:09;100044.75;;;21.47;100.00
25232;BME280;13176;51.140;6.290;2023-07-28T07:57:36;99976.34;;;21.26;100.00
25232;BME280;13176;51.140;6.290;2023-07-28T08:00:02;99996.13;;;21.47;100.00
25232;BME280;13176;51.140;6.290;2023-07-28T08:02:29;100064.56;;;21.81;100.00
25232;BME280;13176;51.140;6.290;2023-07-28T08:04:56;100057.44;;;21.69;100.00
25232;BME280;13176;51.140;6.290;2023-07-28T08:07:22;100008.44;;;21.48;100.00
25232;BME280;13176;51.140;6.290;2023-07-28T08:09:50;100056.13;;;21.87;100.00
25232;BME280;13176;51.140;6.290;2023-07-28T08:12:17;100068.88;;;22.06;100.00
25232;BME280;13176;51.140;6.290;2023-07-28T08:14:43;100072.28;;;22.08;100.00
25232;BME280;13176;51.140;6.290;2023-07-28T08:17:10;100088.09;;;22.22;100.00
25232;BME280;13176;51.140;6.290;2023-07-28T08:19:36;99991.22;;;21.66;100.00
25232;BME280;13176;51.140;6.290;2023-07-28T08:22:03;100015.22;;;21.89;100.00
25232;BME280;13176;51.140;6.290;2023-07-28T08:24:32;100001.44;;;21.72;100.00
25232;BME280;13176;51.140;6.290;2023-07-28T08:26:59;100066.81;;;22.22;100.00
25232;BME280;13176;51.140;6.290;2023-07-28T08:29:26;100071.09;;;22.37;100.00
25232;BME280;13176;51.140;6.290;2023-07-28T08:31:52;100068.66;;;22.34;100.00
25232;BME280;13176;51.140;6.290;2023-07-28T08:34:18;100054.28;;;22.24;100.00
25232;BME280;13176;51.140;6.290;2023-07-28T08:36:45;100064.81;;;22.38;100.00
25232;BME280;13176;51.140;6.290;2023-07-28T08:39:11;100031.94;;;22.27;100.00
25232;BME280;13176;51.140;6.290;2023-07-28T08:41:38;100062.97;;;22.51;100.00
25232;BME280;13176;51.140;6.290;2023-07-28T08:44:04;100034.91;;;22.47;100.00
25232;BME280;13176;51.140;6.290;2023-07-28T08:46:32;99997.34;;;22.03;100.00
25232;BME280;13176;51.140;6.290;2023-07-28T08:49:03;99973.75;;;21.99;100.00
25232;BME280;13176;51.140;6.290;2023-07-28T08:51:29;100074.19;;;22.67;100.00
25232;BME280;13176;51.140;6.290;2023-07-28T08:53:56;100069.50;;;22.71;100.00
25232;BME280;13176;51.140;6.290;2023-07-28T08:56:24;100069.88;;;22.77;100.00
25232;BME280;13176;51.140;6.290;2023-07-28T08:58:57;100099.00;;;22.91;100.00
25232;BME280;13176;51.140;6.290;2023-07-28T09:01:24;100097.44;;;23.12;100.00
25232;BME280;13176;51.140;6.290;2023-07-28T09:03:50;100086.19;;;22.96;100.00
25232;BME280;13176;51.140;6.290;2023-07-28T09:06:17;100073.34;;;22.90;100.00
25232;BME280;13176;51.140;6.290;2023-07-28T09:08:44;100091.50;;;22.96;100.00
25232;BME280;13176;51.140;6.290;2023-07-28T09:11:13;100083.81;;;23.04;100.00
25232;BME280;13176;51.140;6.290;2023-07-28T09:13:41;100038.69;;;22.79;100.00
25232;BME280;13176;51.140;6.290;2023-07-28T09:16:18;100098.16;;;23.37;100.00
25232;BME280;13176;51.140;6.290;2023-07-28T09:18:44;100064.53;;;23.13;100.00
25232;BME280;13176;51.140;6.290;2023-07-28T09:21:18;100040.97;;;23.07;100.00
25232;BME280;13176;51.140;6.290;2023-07-28T09:23:47;100036.34;;;22.98;100.00
25232;BME280;13176;51.140;6.290;2023-07-28T09:26:15;100050.47;;;23.11;100.00
25232;BME280;13176;51.140;6.290;2023-07-28T09:28:42;100086.34;;;23.18;100.00
25232;BME280;13176;51.140;6.290;2023-07-28T09:31:08;100044.56;;;23.18;100.00
25232;BME280;13176;51.140;6.290;2023-07-28T09:33:37;99995.69;;;22.96;100.00
25232;BME280;13176;51.140;6.290;2023-07-28T09:36:10;100088.41;;;23.60;100.00
25232;BME280;13176;51.140;6.290;2023-07-28T09:38:41;100096.91;;;23.65;100.00
25232;BME280;13176;51.140;6.290;2023-07-28T09:41:09;100079.56;;;23.48;99.45
25232;BME280;13176;51.140;6.290;2023-07-28T09:43:38;100103.63;;;23.47;99.77
25232;BME280;13176;51.140;6.290;2023-07-28T09:46:06;100088.09;;;23.41;98.75
25232;BME280;13176;51.140;6.290;2023-07-28T09:48:34;100096.38;;;23.49;98.43
25232;BME280;13176;51.140;6.290;2023-07-28T09:51:06;100105.56;;;23.45;99.76
25232;BME280;13176;51.140;6.290;2023-07-28T09:53:40;100038.53;;;22.93;100.00
25232;BME280;13176;51.140;6.290;2023-07-28T09:56:09;100087.81;;;23.22;100.00
25232;BME280;13176;51.140;6.290;2023-07-28T09:58:41;100076.28;;;23.21;100.00
25232;BME280;13176;51.140;6.290;2023-07-28T10:01:08;100040.06;;;23.08;100.00
25232;BME280;13176;51.140;6.290;2023-07-28T10:03:36;100093.88;;;23.35;100.00
25232;BME280;13176;51.140;6.290;2023-07-28T10:06:06;100057.38;;;23.13;100.00
25232;BME280;13176;51.140;6.290;2023-07-28T10:08:41;100089.56;;;23.45;100.00
25232;BME280;13176;51.140;6.290;2023-07-28T10:11:14;100087.34;;;23.28;100.00
25232;BME280;13176;51.140;6.290;2023-07-28T10:13:44;100056.78;;;23.10;100.00
25232;BME280;13176;51.140;6.290;2023-07-28T10:16:12;100111.28;;;23.17;100.00
25232;BME280;13176;51.140;6.290;2023-07-28T10:18:52;100050.97;;;22.69;100.00
25232;BME280;13176;51.140;6.290;2023-07-28T10:21:19;100092.16;;;23.00;100.00
25232;BME280;13176;51.140;6.290;2023-07-28T10:23:54;100100.09;;;23.12;100.00
25232;BME280;13176;51.140;6.290;2023-07-28T10:26:38;100105.25;;;23.26;100.00
25232;BME280;13176;51.140;6.290;2023-07-28T10:29:12;100092.41;;;23.31;100.00
25232;BME280;13176;51.140;6.290;2023-07-28T10:31:53;100098.06;;;23.50;100.00
25232;BME280;13176;51.140;6.290;2023-07-28T10:34:21;100047.88;;;23.22;100.00
25232;BME280;13176;51.140;6.290;2023-07-28T10:36:59;100077.44;;;23.41;100.00
25232;BME280;13176;51.140;6.290;2023-07-28T10:39:26;100085.34;;;23.42;100.00
25232;BME280;13176;51.140;6.290;2023-07-28T10:42:07;100111.31;;;23.05;100.00
25232;BME280;13176;51.140;6.290;2023-07-28T10:44:36;100118.31;;;23.06;100.00
25232;BME280;13176;51.140;6.290;2023-07-28T10:47:07;100073.50;;;22.76;100.00
25232;BME280;13176;51.140;6.290;2023-07-28T10:49:34;100110.66;;;23.01;100.00
25232;BME280;13176;51.140;6.290;2023-07-28T10:52:01;100070.63;;;22.79;100.00
25232;BME280;13176;51.140;6.290;2023-07-28T10:54:31;100095.75;;;23.11;100.00
25232;BME280;13176;51.140;6.290;2023-07-28T10:57:01;100085.88;;;23.24;100.00
25232;BME280;13176;51.140;6.290;2023-07-28T10:59:29;100108.97;;;23.47;100.00
25232;BME280;13176;51.140;6.290;2023-07-28T11:01:56;100049.84;;;23.42;100.00
25232;BME280;13176;51.140;6.290;2023-07-28T11:04:23;100093.81;;;23.82;100.00
25232;BME280;13176;51.140;6.290;2023-07-28T11:06:50;100025.41;;;23.48;100.00
25232;BME280;13176;51.140;6.290;2023-07-28T11:09:21;100094.47;;;23.73;100.00
25232;BME280;13176;51.140;6.290;2023-07-28T11:11:49;100080.09;;;23.86;99.87
25232;BME280;13176;51.140;6.290;2023-07-28T11:14:17;100096.50;;;24.15;99.28
25232;BME280;13176;51.140;6.290;2023-07-28T11:16:46;100041.47;;;23.92;98.13
25232;BME280;13176;51.140;6.290;2023-07-28T11:19:16;100090.19;;;24.16;95.74
25232;BME280;13176;51.140;6.290;2023-07-28T11:21:47;100101.59;;;24.39;95.35
25232;BME280;13176;51.140;6.290;2023-07-28T11:24:19;100105.69;;;24.76;91.15
25232;BME280;13176;51.140;6.290;2023-07-28T11:26:47;100082.25;;;25.22;87.38
25232;BME280;13176;51.140;6.290;2023-07-28T11:29:13;100052.81;;;25.02;83.61
25232;BME280;13176;51.140;6.290;2023-07-28T11:31:43;100020.22;;;24.87;85.34
25232;BME280;13176;51.140;6.290;2023-07-28T11:34:14;100050.97;;;24.82;86.86
25232;BME280;13176;51.140;6.290;2023-07-28T11:36:41;100047.38;;;24.39;86.01
25232;BME280;13176;51.140;6.290;2023-07-28T11:39:09;100073.94;;;24.40;85.42
25232;BME280;13176;51.140;6.290;2023-07-28T11:41:37;100056.38;;;24.16;85.63
25232;BME280;13176;51.140;6.290;2023-07-28T11:44:06;100016.69;;;23.68;87.60
25232;BME280;13176;51.140;6.290;2023-07-28T11:46:40;100105.22;;;24.17;87.54
25232;BME280;13176;51.140;6.290;2023-07-28T11:49:16;100097.47;;;24.25;88.43
25232;BME280;13176;51.140;6.290;2023-07-28T11:51:47;100115.19;;;24.26;88.63
25232;BME280;13176;51.140;6.290;2023-07-28T11:54:21;100090.19;;;24.05;86.75
25232;BME280;13176;51.140;6.290;2023-07-28T11:56:50;100114.81;;;24.19;87.73
25232;BME280;13176;51.140;6.290;2023-07-28T11:59:19;100110.09;;;24.33;88.52
25232;BME280;13176;51.140;6.290;2023-07-28T12:02:01;100098.44;;;24.13;87.22
25232;BME280;13176;51.140;6.290;2023-07-28T12:04:35;100112.97;;;24.41;87.99
25232;BME280;13176;51.140;6.290;2023-07-28T12:12:30;100090.66;;;24.42;91.04
25232;BME280;13176;51.140;6.290;2023-07-28T12:15:23;100115.19;;;24.69;91.76
25232;BME280;13176;51.140;6.290;2023-07-28T12:20:50;100120.28;;;24.72;92.71
25232;BME280;13176;51.140;6.290;2023-07-28T12:23:22;100119.56;;;24.70;93.25
25232;BME280;13176;51.140;6.290;2023-07-28T12:25:52;100121.22;;;24.82;93.87
25232;BME280;13176;51.140;6.290;2023-07-28T12:28:22;100072.84;;;24.43;91.38
25232;BME280;13176;51.140;6.290;2023-07-28T12:30:50;100133.97;;;24.68;91.20
25232;BME280;13176;51.140;6.290;2023-07-28T12:33:30;100117.09;;;24.45;93.29
25232;BME280;13176;51.140;6.290;2023-07-28T12:35:59;100132.16;;;24.46;94.71
25232;BME280;13176;51.140;6.290;2023-07-28T12:38:46;100078.19;;;23.99;96.15
25232;BME280;13176;51.140;6.290;2023-07-28T12:41:13;100080.03;;;23.99;96.42
25232;BME280;13176;51.140;6.290;2023-07-28T12:43:50;100136.28;;;24.28;96.37
25232;BME280;13176;51.140;6.290;2023-07-28T12:46:19;100134.59;;;24.38;96.89
25232;BME280;13176;51.140;6.290;2023-07-28T12:48:46;100123.91;;;24.27;97.46
25232;BME280;13176;51.140;6.290;2023-07-28T12:51:14;100044.38;;;23.89;96.12
25232;BME280;13176;51.140;6.290;2023-07-28T12:54:01;100134.59;;;24.49;95.69
25232;BME280;13176;51.140;6.290;2023-07-28T12:56:27;100099.28;;;24.35;94.88
25232;BME280;13176;51.140;6.290;2023-07-28T12:58:57;100092.13;;;24.46;94.33
25232;BME280;13176;51.140;6.290;2023-07-28T13:01:26;100059.63;;;24.41;93.83